This is the latest recevied weather packets stored in our database for station/object EDDH. If no packets are shown the sender has not sent any weather packets the latest 10 day(s).
| Time | Temp. | Humidity | Pressure | Rain* | Wind** | Luminosity | Snow |
|---|---|---|---|---|---|---|---|
| 1788567001 | 15.56° C | 80% | 1009 hPa | 0 mm | - | - | - |
| 1788563401 | 15° C | 85% | 1009 hPa | 0 mm | - | - | - |
| 1788559802 | 15.56° C | 80% | 1008 hPa | 0 mm | - | - | - |
| 1788552944 | 15.56° C | 80% | 1008 hPa | 0 mm | - | - | - |
| 1788549001 | 16.67° C | 80% | 1007 hPa | 0 mm | - | - | - |
| 1788545401 | 16.67° C | 85% | 1006 hPa | 0 mm | - | - | - |
| 1788541801 | 17.78° C | 85% | 1005 hPa | 0 mm | - | - | - |
| 1788538202 | 17.78° C | 90% | 1005 hPa | 0 mm | - | - | - |
| 1788534602 | 18.89° C | 90% | 1004 hPa | 0 mm | - | - | - |
| 1788531003 | 17.78° C | 95% | 1004 hPa | 0 mm | - | - | - |
| 1788527402 | 17.78° C | 95% | 1004 hPa | 0 mm | - | - | - |
| 1788523803 | 17.78° C | 95% | 1004 hPa | 0 mm | - | - | - |
| 1788520202 | 20° C | 90% | 1002 hPa | 0 mm | - | - | - |
| 1788516602 | 17.78° C | 10% | 1004 hPa | 0 mm | - | - | - |
| 1788513002 | 18.89° C | 95% | 1004 hPa | 0 mm | - | - | - |
| 1788509402 | 17.78° C | 10% | 1005 hPa | 0 mm | - | - | - |
| 1788505802 | 17.78° C | 95% | 1006 hPa | 0 mm | - | - | - |
| 1788502202 | 17.78° C | 95% | 1007 hPa | 0 mm | - | - | - |
| 1788498603 | 16.67° C | 10% | 1008 hPa | 0 mm | - | - | - |
| 1788495002 | 17.78° C | 90% | 1009 hPa | 0 mm | - | - | - |
| 1788491402 | 16.67° C | 90% | 1010 hPa | 0 mm | - | - | - |
| 1788487802 | 16.67° C | 90% | 1011 hPa | 0 mm | - | - | - |
| 1788484203 | 16.67° C | 85% | 1011 hPa | 0 mm | - | - | - |
| 1788480602 | 17.78° C | 85% | 1012 hPa | 0 mm | - | - | - |
| 1788477001 | 17.78° C | 80% | 1012 hPa | 0 mm | - | - | - |
* Rain latest 24 hours (hover to see other rain measurements)
** Current wind speed in m/s (hover to see current wind gust speed)